Freeport, Minnesota
Current Conditions -  °F | °C
As of 10:33 PM on Saturday 25 Oct 2014 (Local Time) from KD39 Reporting Station
Clear Clear  
Wind Chill: 37°   Ceiling: Unl
Heat Index: 37°   Visibility: 10mi
Dew Point: 28°   Wind: 0mph
Humidity: 69%   Direction: NA
Pressure: 30.06"   Gusts: NA
Location:  45.66°N, 94.69°W
Report Text: KD39 260333Z AUTO 00000KT 10SM CLR 03/M02 A3006 RMK AO2 T00271025
Loading
Personal Weather Stations






























Interactive Weather Map
Tropical Storm Tracking
New forecast layout! Learn more

10-Day Weather Forecast

Advertisements
Track Severe Weather on mobile